sensor_id;sensor_type;location;lat;lon;timestamp;temperature;humidity
15951;DHT22;8074;48.112;11.570;2022-07-10T00:01:11;18.30;99.90
15951;DHT22;8074;48.112;11.570;2022-07-10T00:03:38;18.30;99.90
15951;DHT22;8074;48.112;11.570;2022-07-10T00:06:05;18.40;99.90
15951;DHT22;8074;48.112;11.570;2022-07-10T00:08:33;18.40;99.90
15951;DHT22;8074;48.112;11.570;2022-07-10T00:11:01;18.30;99.90
15951;DHT22;8074;48.112;11.570;2022-07-10T00:13:28;18.40;99.90
15951;DHT22;8074;48.112;11.570;2022-07-10T00:15:55;18.40;99.90
15951;DHT22;8074;48.112;11.570;2022-07-10T00:18:22;18.40;99.90
15951;DHT22;8074;48.112;11.570;2022-07-10T00:20:50;18.30;99.90
15951;DHT22;8074;48.112;11.570;2022-07-10T00:23:18;18.50;99.90
15951;DHT22;8074;48.112;11.570;2022-07-10T00:25:45;18.50;99.90
15951;DHT22;8074;48.112;11.570;2022-07-10T00:28:14;18.50;99.90
15951;DHT22;8074;48.112;11.570;2022-07-10T00:30:41;18.40;99.90
15951;DHT22;8074;48.112;11.570;2022-07-10T00:33:08;18.30;99.90
15951;DHT22;8074;48.112;11.570;2022-07-10T00:35:35;18.20;99.90
15951;DHT22;8074;48.112;11.570;2022-07-10T00:38:02;18.10;99.90
15951;DHT22;8074;48.112;11.570;2022-07-10T00:40:29;18.00;99.90
15951;DHT22;8074;48.112;11.570;2022-07-10T00:42:56;17.90;99.90
15951;DHT22;8074;48.112;11.570;2022-07-10T00:45:25;17.90;99.90
15951;DHT22;8074;48.112;11.570;2022-07-10T00:47:52;17.70;99.90
15951;DHT22;8074;48.112;11.570;2022-07-10T00:50:20;17.60;99.90
15951;DHT22;8074;48.112;11.570;2022-07-10T00:52:47;17.40;99.90
15951;DHT22;8074;48.112;11.570;2022-07-10T00:55:14;17.30;99.90
15951;DHT22;8074;48.112;11.570;2022-07-10T00:57:41;17.40;99.90
15951;DHT22;8074;48.112;11.570;2022-07-10T01:00:09;17.30;99.90
15951;DHT22;8074;48.112;11.570;2022-07-10T01:02:41;17.30;99.90
15951;DHT22;8074;48.112;11.570;2022-07-10T01:05:08;17.30;99.90
15951;DHT22;8074;48.112;11.570;2022-07-10T01:07:36;17.10;99.90
15951;DHT22;8074;48.112;11.570;2022-07-10T01:10:07;17.10;99.90
15951;DHT22;8074;48.112;11.570;2022-07-10T01:12:38;17.00;99.90
15951;DHT22;8074;48.112;11.570;2022-07-10T01:15:07;16.90;99.90
15951;DHT22;8074;48.112;11.570;2022-07-10T01:17:35;16.90;99.90
15951;DHT22;8074;48.112;11.570;2022-07-10T01:20:06;16.70;99.90
15951;DHT22;8074;48.112;11.570;2022-07-10T01:22:36;16.70;99.90
15951;DHT22;8074;48.112;11.570;2022-07-10T01:25:04;16.60;99.90
15951;DHT22;8074;48.112;11.570;2022-07-10T01:27:32;16.70;99.90
15951;DHT22;8074;48.112;11.570;2022-07-10T01:30:00;16.80;99.90
15951;DHT22;8074;48.112;11.570;2022-07-10T01:32:37;16.80;99.90
15951;DHT22;8074;48.112;11.570;2022-07-10T01:35:06;16.80;99.90
15951;DHT22;8074;48.112;11.570;2022-07-10T01:37:36;16.60;99.90
15951;DHT22;8074;48.112;11.570;2022-07-10T01:40:05;16.70;99.90
15951;DHT22;8074;48.112;11.570;2022-07-10T01:42:33;16.70;99.90
15951;DHT22;8074;48.112;11.570;2022-07-10T01:45:01;16.60;99.90
15951;DHT22;8074;48.112;11.570;2022-07-10T01:47:28;16.50;99.90
15951;DHT22;8074;48.112;11.570;2022-07-10T01:49:55;16.20;99.90
15951;DHT22;8074;48.112;11.570;2022-07-10T01:52:22;16.10;99.90
15951;DHT22;8074;48.112;11.570;2022-07-10T01:54:51;16.10;99.90
15951;DHT22;8074;48.112;11.570;2022-07-10T01:57:18;15.80;99.90
15951;DHT22;8074;48.112;11.570;2022-07-10T01:59:45;16.00;99.90
15951;DHT22;8074;48.112;11.570;2022-07-10T02:02:12;16.10;99.90
15951;DHT22;8074;48.112;11.570;2022-07-10T02:04:39;16.10;99.90
15951;DHT22;8074;48.112;11.570;2022-07-10T02:07:08;16.00;99.90
15951;DHT22;8074;48.112;11.570;2022-07-10T02:09:36;15.80;99.90
15951;DHT22;8074;48.112;11.570;2022-07-10T02:12:06;16.00;99.90
15951;DHT22;8074;48.112;11.570;2022-07-10T02:14:34;16.00;99.90
15951;DHT22;8074;48.112;11.570;2022-07-10T02:17:01;16.10;99.90
15951;DHT22;8074;48.112;11.570;2022-07-10T02:19:28;16.10;99.90
15951;DHT22;8074;48.112;11.570;2022-07-10T02:21:55;16.10;99.90
15951;DHT22;8074;48.112;11.570;2022-07-10T02:24:22;16.00;99.90
15951;DHT22;8074;48.112;11.570;2022-07-10T02:26:49;16.00;99.90
15951;DHT22;8074;48.112;11.570;2022-07-10T02:29:18;15.80;99.90
15951;DHT22;8074;48.112;11.570;2022-07-10T02:31:45;15.70;99.90
15951;DHT22;8074;48.112;11.570;2022-07-10T02:34:13;15.70;99.90
15951;DHT22;8074;48.112;11.570;2022-07-10T02:36:41;15.60;99.90
15951;DHT22;8074;48.112;11.570;2022-07-10T02:39:09;15.70;99.90
15951;DHT22;8074;48.112;11.570;2022-07-10T02:41:36;15.70;99.90
15951;DHT22;8074;48.112;11.570;2022-07-10T02:44:03;15.70;99.90
15951;DHT22;8074;48.112;11.570;2022-07-10T02:46:32;15.60;99.90
15951;DHT22;8074;48.112;11.570;2022-07-10T02:48:59;15.60;99.90
15951;DHT22;8074;48.112;11.570;2022-07-10T02:51:26;15.40;99.90
15951;DHT22;8074;48.112;11.570;2022-07-10T02:53:53;15.50;99.90
15951;DHT22;8074;48.112;11.570;2022-07-10T02:56:20;15.40;99.90
15951;DHT22;8074;48.112;11.570;2022-07-10T02:58:47;15.50;99.90
15951;DHT22;8074;48.112;11.570;2022-07-10T03:01:14;15.60;99.90
15951;DHT22;8074;48.112;11.570;2022-07-10T03:03:42;15.40;99.90
15951;DHT22;8074;48.112;11.570;2022-07-10T03:06:09;15.50;99.90
15951;DHT22;8074;48.112;11.570;2022-07-10T03:08:36;15.50;99.90
15951;DHT22;8074;48.112;11.570;2022-07-10T03:11:03;15.50;99.90
15951;DHT22;8074;48.112;11.570;2022-07-10T03:13:30;15.40;99.90
15951;DHT22;8074;48.112;11.570;2022-07-10T03:15:58;15.40;99.90
15951;DHT22;8074;48.112;11.570;2022-07-10T03:18:25;15.40;99.90
15951;DHT22;8074;48.112;11.570;2022-07-10T03:20:53;15.30;99.90
15951;DHT22;8074;48.112;11.570;2022-07-10T03:23:20;15.30;99.90
15951;DHT22;8074;48.112;11.570;2022-07-10T03:25:47;15.40;99.90
15951;DHT22;8074;48.112;11.570;2022-07-10T03:28:14;15.30;99.90
15951;DHT22;8074;48.112;11.570;2022-07-10T03:30:41;15.20;99.90
15951;DHT22;8074;48.112;11.570;2022-07-10T03:33:08;15.00;99.90
15951;DHT22;8074;48.112;11.570;2022-07-10T03:35:35;15.00;99.90
15951;DHT22;8074;48.112;11.570;2022-07-10T03:38:05;15.00;99.90
15951;DHT22;8074;48.112;11.570;2022-07-10T03:40:32;15.10;99.90
15951;DHT22;8074;48.112;11.570;2022-07-10T03:43:00;15.00;99.90
15951;DHT22;8074;48.112;11.570;2022-07-10T03:45:27;15.10;99.90
15951;DHT22;8074;48.112;11.570;2022-07-10T03:47:54;15.10;99.90
15951;DHT22;8074;48.112;11.570;2022-07-10T03:50:21;15.20;99.90
15951;DHT22;8074;48.112;11.570;2022-07-10T03:52:48;15.20;99.90
15951;DHT22;8074;48.112;11.570;2022-07-10T03:55:17;15.20;99.90
15951;DHT22;8074;48.112;11.570;2022-07-10T03:57:44;15.00;99.90
15951;DHT22;8074;48.112;11.570;2022-07-10T04:00:24;15.20;99.90
15951;DHT22;8074;48.112;11.570;2022-07-10T04:02:56;15.10;99.90
15951;DHT22;8074;48.112;11.570;2022-07-10T04:05:24;15.10;99.90
15951;DHT22;8074;48.112;11.570;2022-07-10T04:07:55;15.10;99.90
15951;DHT22;8074;48.112;11.570;2022-07-10T04:10:29;15.00;99.90
15951;DHT22;8074;48.112;11.570;2022-07-10T04:12:57;15.10;99.90
15951;DHT22;8074;48.112;11.570;2022-07-10T04:15:24;15.20;99.90
15951;DHT22;8074;48.112;11.570;2022-07-10T04:17:52;15.10;99.90
15951;DHT22;8074;48.112;11.570;2022-07-10T04:20:20;15.20;99.90
15951;DHT22;8074;48.112;11.570;2022-07-10T04:22:47;15.20;99.90
15951;DHT22;8074;48.112;11.570;2022-07-10T04:25:15;15.40;99.90
15951;DHT22;8074;48.112;11.570;2022-07-10T04:27:43;15.50;99.90
15951;DHT22;8074;48.112;11.570;2022-07-10T04:30:11;15.60;99.90
15951;DHT22;8074;48.112;11.570;2022-07-10T04:32:37;15.50;99.90
15951;DHT22;8074;48.112;11.570;2022-07-10T04:35:05;15.40;99.90
15951;DHT22;8074;48.112;11.570;2022-07-10T04:37:33;15.50;99.90
15951;DHT22;8074;48.112;11.570;2022-07-10T04:40:01;15.60;99.90
15951;DHT22;8074;48.112;11.570;2022-07-10T04:42:28;15.70;99.90
15951;DHT22;8074;48.112;11.570;2022-07-10T04:44:57;15.60;99.90
15951;DHT22;8074;48.112;11.570;2022-07-10T04:47:24;15.70;99.90
15951;DHT22;8074;48.112;11.570;2022-07-10T04:49:51;15.80;99.90
15951;DHT22;8074;48.112;11.570;2022-07-10T04:52:18;15.80;99.90
15951;DHT22;8074;48.112;11.570;2022-07-10T04:54:45;15.70;99.90
15951;DHT22;8074;48.112;11.570;2022-07-10T04:57:12;15.60;99.90
15951;DHT22;8074;48.112;11.570;2022-07-10T04:59:39;15.60;99.90
15951;DHT22;8074;48.112;11.570;2022-07-10T05:02:08;15.70;99.90
15951;DHT22;8074;48.112;11.570;2022-07-10T05:04:35;15.70;99.90
15951;DHT22;8074;48.112;11.570;2022-07-10T05:07:02;15.70;99.90
15951;DHT22;8074;48.112;11.570;2022-07-10T05:09:29;15.70;99.90
15951;DHT22;8074;48.112;11.570;2022-07-10T05:11:56;15.90;99.90
15951;DHT22;8074;48.112;11.570;2022-07-10T05:14:23;16.00;99.90
15951;DHT22;8074;48.112;11.570;2022-07-10T05:16:51;16.00;99.90
15951;DHT22;8074;48.112;11.570;2022-07-10T05:19:20;15.90;99.90
15951;DHT22;8074;48.112;11.570;2022-07-10T05:21:47;15.80;99.90
15951;DHT22;8074;48.112;11.570;2022-07-10T05:24:14;15.80;99.90
15951;DHT22;8074;48.112;11.570;2022-07-10T05:26:41;15.70;99.90
15951;DHT22;8074;48.112;11.570;2022-07-10T05:29:08;15.70;99.90
15951;DHT22;8074;48.112;11.570;2022-07-10T05:31:35;15.70;99.90
15951;DHT22;8074;48.112;11.570;2022-07-10T05:34:02;15.60;99.90
15951;DHT22;8074;48.112;11.570;2022-07-10T05:36:31;15.70;99.90
15951;DHT22;8074;48.112;11.570;2022-07-10T05:38:58;15.90;99.90
15951;DHT22;8074;48.112;11.570;2022-07-10T05:41:25;16.00;99.90
15951;DHT22;8074;48.112;11.570;2022-07-10T05:43:52;15.90;99.90
15951;DHT22;8074;48.112;11.570;2022-07-10T05:46:30;16.00;99.90
15951;DHT22;8074;48.112;11.570;2022-07-10T05:48:57;16.00;99.90
15951;DHT22;8074;48.112;11.570;2022-07-10T05:51:24;16.10;99.90
15951;DHT22;8074;48.112;11.570;2022-07-10T05:53:52;16.30;99.90
15951;DHT22;8074;48.112;11.570;2022-07-10T05:56:19;16.30;99.90
15951;DHT22;8074;48.112;11.570;2022-07-10T05:58:46;16.30;99.90
15951;DHT22;8074;48.112;11.570;2022-07-10T06:01:13;16.10;99.90
15951;DHT22;8074;48.112;11.570;2022-07-10T06:03:40;15.90;99.90
15951;DHT22;8074;48.112;11.570;2022-07-10T06:06:07;15.80;99.90
15951;DHT22;8074;48.112;11.570;2022-07-10T06:08:34;15.90;99.90
15951;DHT22;8074;48.112;11.570;2022-07-10T06:11:02;16.20;99.90
15951;DHT22;8074;48.112;11.570;2022-07-10T06:13:29;16.60;99.90
15951;DHT22;8074;48.112;11.570;2022-07-10T06:15:56;16.50;99.90
15951;DHT22;8074;48.112;11.570;2022-07-10T06:18:23;16.40;99.90
15951;DHT22;8074;48.112;11.570;2022-07-10T06:20:50;16.60;99.90
15951;DHT22;8074;48.112;11.570;2022-07-10T06:23:17;16.60;99.90
15951;DHT22;8074;48.112;11.570;2022-07-10T06:25:44;16.80;99.90
15951;DHT22;8074;48.112;11.570;2022-07-10T06:28:12;16.80;99.90
15951;DHT22;8074;48.112;11.570;2022-07-10T06:30:39;16.50;99.90
15951;DHT22;8074;48.112;11.570;2022-07-10T06:33:06;16.20;99.90
15951;DHT22;8074;48.112;11.570;2022-07-10T06:35:33;16.20;99.90
15951;DHT22;8074;48.112;11.570;2022-07-10T06:38:01;16.20;99.90
15951;DHT22;8074;48.112;11.570;2022-07-10T06:40:29;16.10;99.90
15951;DHT22;8074;48.112;11.570;2022-07-10T06:42:56;16.10;99.90
15951;DHT22;8074;48.112;11.570;2022-07-10T06:45:24;16.20;99.90
15951;DHT22;8074;48.112;11.570;2022-07-10T06:47:51;16.30;99.90
15951;DHT22;8074;48.112;11.570;2022-07-10T06:50:24;16.20;99.90
15951;DHT22;8074;48.112;11.570;2022-07-10T06:52:52;16.10;99.90
15951;DHT22;8074;48.112;11.570;2022-07-10T06:55:19;16.30;99.90
15951;DHT22;8074;48.112;11.570;2022-07-10T06:57:46;16.50;99.90
15951;DHT22;8074;48.112;11.570;2022-07-10T07:00:13;16.80;99.90
15951;DHT22;8074;48.112;11.570;2022-07-10T07:02:42;16.70;99.90
15951;DHT22;8074;48.112;11.570;2022-07-10T07:05:09;16.50;99.90
15951;DHT22;8074;48.112;11.570;2022-07-10T07:07:37;16.80;99.90
15951;DHT22;8074;48.112;11.570;2022-07-10T07:10:05;16.90;99.90
15951;DHT22;8074;48.112;11.570;2022-07-10T07:12:32;16.70;99.90
15951;DHT22;8074;48.112;11.570;2022-07-10T07:14:59;16.80;99.90
15951;DHT22;8074;48.112;11.570;2022-07-10T07:17:27;17.00;99.90
15951;DHT22;8074;48.112;11.570;2022-07-10T07:20:01;17.10;99.90
15951;DHT22;8074;48.112;11.570;2022-07-10T07:22:45;17.30;99.90
15951;DHT22;8074;48.112;11.570;2022-07-10T07:25:29;17.40;99.90
15951;DHT22;8074;48.112;11.570;2022-07-10T07:27:56;16.70;99.90
15951;DHT22;8074;48.112;11.570;2022-07-10T07:30:23;16.90;99.90
15951;DHT22;8074;48.112;11.570;2022-07-10T07:32:51;16.90;99.90
15951;DHT22;8074;48.112;11.570;2022-07-10T07:35:19;17.10;99.90
15951;DHT22;8074;48.112;11.570;2022-07-10T07:37:48;17.00;99.90
15951;DHT22;8074;48.112;11.570;2022-07-10T07:40:17;16.80;99.90
15951;DHT22;8074;48.112;11.570;2022-07-10T07:42:45;16.50;99.90
15951;DHT22;8074;48.112;11.570;2022-07-10T07:45:13;16.50;99.90
15951;DHT22;8074;48.112;11.570;2022-07-10T07:47:43;16.80;99.90
15951;DHT22;8074;48.112;11.570;2022-07-10T07:50:10;16.60;99.90
15951;DHT22;8074;48.112;11.570;2022-07-10T07:52:39;16.40;99.90
15951;DHT22;8074;48.112;11.570;2022-07-10T07:55:07;16.60;99.90
15951;DHT22;8074;48.112;11.570;2022-07-10T07:57:34;16.90;99.90
15951;DHT22;8074;48.112;11.570;2022-07-10T08:00:03;17.10;99.90
15951;DHT22;8074;48.112;11.570;2022-07-10T08:02:31;17.30;99.90
15951;DHT22;8074;48.112;11.570;2022-07-10T08:04:58;17.30;99.90
15951;DHT22;8074;48.112;11.570;2022-07-10T08:07:33;17.40;99.90
15951;DHT22;8074;48.112;11.570;2022-07-10T08:10:02;17.20;99.90
15951;DHT22;8074;48.112;11.570;2022-07-10T08:12:29;17.40;99.90
15951;DHT22;8074;48.112;11.570;2022-07-10T08:14:56;17.60;99.90
15951;DHT22;8074;48.112;11.570;2022-07-10T08:17:23;17.60;99.90
15951;DHT22;8074;48.112;11.570;2022-07-10T08:19:50;17.60;99.90
15951;DHT22;8074;48.112;11.570;2022-07-10T08:22:17;17.60;99.90
15951;DHT22;8074;48.112;11.570;2022-07-10T08:24:44;17.60;99.90
15951;DHT22;8074;48.112;11.570;2022-07-10T08:27:13;17.40;99.90
15951;DHT22;8074;48.112;11.570;2022-07-10T08:29:42;17.40;99.90
15951;DHT22;8074;48.112;11.570;2022-07-10T08:32:09;17.80;99.90
15951;DHT22;8074;48.112;11.570;2022-07-10T08:34:37;18.70;99.90
15951;DHT22;8074;48.112;11.570;2022-07-10T08:37:04;19.80;99.90
15951;DHT22;8074;48.112;11.570;2022-07-10T08:39:31;20.10;99.90
15951;DHT22;8074;48.112;11.570;2022-07-10T08:41:59;20.00;99.90
15951;DHT22;8074;48.112;11.570;2022-07-10T08:44:28;20.40;99.90
15951;DHT22;8074;48.112;11.570;2022-07-10T08:46:56;20.70;99.90
15951;DHT22;8074;48.112;11.570;2022-07-10T08:49:27;20.30;99.90
15951;DHT22;8074;48.112;11.570;2022-07-10T08:51:57;19.80;99.90
15951;DHT22;8074;48.112;11.570;2022-07-10T08:54:28;19.40;99.90
15951;DHT22;8074;48.112;11.570;2022-07-10T08:56:56;18.90;99.90
15951;DHT22;8074;48.112;11.570;2022-07-10T08:59:24;19.10;99.90
15951;DHT22;8074;48.112;11.570;2022-07-10T09:01:53;18.90;99.90
15951;DHT22;8074;48.112;11.570;2022-07-10T09:04:22;19.30;99.90
15951;DHT22;8074;48.112;11.570;2022-07-10T09:06:50;19.80;99.90
15951;DHT22;8074;48.112;11.570;2022-07-10T09:09:18;20.70;99.90
15951;DHT22;8074;48.112;11.570;2022-07-10T09:11:45;20.20;99.90
15951;DHT22;8074;48.112;11.570;2022-07-10T09:14:14;19.30;99.90
15951;DHT22;8074;48.112;11.570;2022-07-10T09:16:43;18.70;99.90
15951;DHT22;8074;48.112;11.570;2022-07-10T09:19:17;19.50;99.90
15951;DHT22;8074;48.112;11.570;2022-07-10T09:21:46;20.50;99.90
15951;DHT22;8074;48.112;11.570;2022-07-10T09:24:13;21.10;99.90
15951;DHT22;8074;48.112;11.570;2022-07-10T09:26:42;20.70;99.90
15951;DHT22;8074;48.112;11.570;2022-07-10T09:29:10;21.00;99.90
15951;DHT22;8074;48.112;11.570;2022-07-10T09:31:51;21.90;99.90
15951;DHT22;8074;48.112;11.570;2022-07-10T09:34:35;21.40;99.90
15951;DHT22;8074;48.112;11.570;2022-07-10T09:37:19;21.10;99.90
15951;DHT22;8074;48.112;11.570;2022-07-10T09:39:54;20.70;99.90
15951;DHT22;8074;48.112;11.570;2022-07-10T09:42:26;20.40;99.90
15951;DHT22;8074;48.112;11.570;2022-07-10T09:44:53;21.00;99.90
15951;DHT22;8074;48.112;11.570;2022-07-10T09:47:22;20.50;99.90
15951;DHT22;8074;48.112;11.570;2022-07-10T09:50:20;19.60;99.90
15951;DHT22;8074;48.112;11.570;2022-07-10T09:53:08;20.40;99.90
15951;DHT22;8074;48.112;11.570;2022-07-10T09:55:56;21.30;99.90
15951;DHT22;8074;48.112;11.570;2022-07-10T09:58:50;20.90;99.90
15951;DHT22;8074;48.112;11.570;2022-07-10T10:01:43;21.90;99.90
15951;DHT22;8074;48.112;11.570;2022-07-10T10:04:33;21.80;99.90
15951;DHT22;8074;48.112;11.570;2022-07-10T10:07:22;21.00;99.90
15951;DHT22;8074;48.112;11.570;2022-07-10T10:09:52;20.70;99.90
15951;DHT22;8074;48.112;11.570;2022-07-10T10:12:30;20.50;99.90
15951;DHT22;8074;48.112;11.570;2022-07-10T10:14:58;19.80;99.90
15951;DHT22;8074;48.112;11.570;2022-07-10T10:17:27;20.00;99.90
15951;DHT22;8074;48.112;11.570;2022-07-10T10:19:56;21.10;99.90
15951;DHT22;8074;48.112;11.570;2022-07-10T10:22:42;22.20;99.90
15951;DHT22;8074;48.112;11.570;2022-07-10T10:25:10;22.90;99.90
15951;DHT22;8074;48.112;11.570;2022-07-10T10:27:38;23.50;99.90
15951;DHT22;8074;48.112;11.570;2022-07-10T10:30:06;23.40;99.90
15951;DHT22;8074;48.112;11.570;2022-07-10T10:32:39;22.60;99.90
15951;DHT22;8074;48.112;11.570;2022-07-10T10:35:07;22.40;99.90
15951;DHT22;8074;48.112;11.570;2022-07-10T10:37:36;22.60;99.90
15951;DHT22;8074;48.112;11.570;2022-07-10T10:40:08;22.10;99.90
15951;DHT22;8074;48.112;11.570;2022-07-10T10:42:36;22.00;99.90
15951;DHT22;8074;48.112;11.570;2022-07-10T10:45:30;22.00;99.90
15951;DHT22;8074;48.112;11.570;2022-07-10T10:48:00;21.20;99.90
15951;DHT22;8074;48.112;11.570;2022-07-10T10:50:37;20.80;99.90
15951;DHT22;8074;48.112;11.570;2022-07-10T10:53:12;21.50;99.90
15951;DHT22;8074;48.112;11.570;2022-07-10T10:55:40;23.10;99.90
15951;DHT22;8074;48.112;11.570;2022-07-10T10:58:15;24.50;99.90
15951;DHT22;8074;48.112;11.570;2022-07-10T11:00:43;24.80;99.90
15951;DHT22;8074;48.112;11.570;2022-07-10T11:03:16;25.00;99.90
15951;DHT22;8074;48.112;11.570;2022-07-10T11:05:45;25.50;99.90
15951;DHT22;8074;48.112;11.570;2022-07-10T11:08:12;25.40;99.90
15951;DHT22;8074;48.112;11.570;2022-07-10T11:10:42;24.20;99.90
15951;DHT22;8074;48.112;11.570;2022-07-10T11:13:11;23.20;99.90
15951;DHT22;8074;48.112;11.570;2022-07-10T11:15:59;22.30;99.90
15951;DHT22;8074;48.112;11.570;2022-07-10T11:18:52;21.50;99.90
15951;DHT22;8074;48.112;11.570;2022-07-10T11:21:46;20.70;99.90
15951;DHT22;8074;48.112;11.570;2022-07-10T11:24:42;20.90;99.90
15951;DHT22;8074;48.112;11.570;2022-07-10T11:27:55;21.40;99.90
15951;DHT22;8074;48.112;11.570;2022-07-10T11:30:46;21.20;99.90
15951;DHT22;8074;48.112;11.570;2022-07-10T11:33:39;20.90;99.90
15951;DHT22;8074;48.112;11.570;2022-07-10T11:36:29;21.30;99.90
15951;DHT22;8074;48.112;11.570;2022-07-10T11:39:18;20.80;99.90
15951;DHT22;8074;48.112;11.570;2022-07-10T11:42:05;21.70;99.90
15951;DHT22;8074;48.112;11.570;2022-07-10T11:44:54;22.70;99.90
15951;DHT22;8074;48.112;11.570;2022-07-10T11:47:41;24.30;99.90
15951;DHT22;8074;48.112;11.570;2022-07-10T11:50:34;26.20;99.90
15951;DHT22;8074;48.112;11.570;2022-07-10T11:53:23;26.90;99.90
15951;DHT22;8074;48.112;11.570;2022-07-10T11:56:11;26.10;99.90
15951;DHT22;8074;48.112;11.570;2022-07-10T11:58:59;24.20;99.90
15951;DHT22;8074;48.112;11.570;2022-07-10T12:01:49;23.10;99.90
15951;DHT22;8074;48.112;11.570;2022-07-10T12:04:37;23.70;99.90
15951;DHT22;8074;48.112;11.570;2022-07-10T12:07:24;24.80;99.90
15951;DHT22;8074;48.112;11.570;2022-07-10T12:10:12;24.40;99.90
15951;DHT22;8074;48.112;11.570;2022-07-10T12:12:40;26.10;99.90
15951;DHT22;8074;48.112;11.570;2022-07-10T12:15:08;26.20;99.90
15951;DHT22;8074;48.112;11.570;2022-07-10T12:17:53;25.70;99.90
15951;DHT22;8074;48.112;11.570;2022-07-10T12:20:21;25.50;99.90
15951;DHT22;8074;48.112;11.570;2022-07-10T12:22:51;25.60;99.90
15951;DHT22;8074;48.112;11.570;2022-07-10T12:25:22;24.00;99.90
15951;DHT22;8074;48.112;11.570;2022-07-10T12:27:55;23.80;99.90
15951;DHT22;8074;48.112;11.570;2022-07-10T12:30:24;23.40;99.90
15951;DHT22;8074;48.112;11.570;2022-07-10T12:33:08;23.60;99.90
15951;DHT22;8074;48.112;11.570;2022-07-10T12:35:46;22.90;99.90
15951;DHT22;8074;48.112;11.570;2022-07-10T12:38:15;22.80;99.90
15951;DHT22;8074;48.112;11.570;2022-07-10T12:40:45;23.10;99.90
15951;DHT22;8074;48.112;11.570;2022-07-10T12:43:12;22.70;99.90
15951;DHT22;8074;48.112;11.570;2022-07-10T12:45:39;23.70;99.90
15951;DHT22;8074;48.112;11.570;2022-07-10T12:48:21;24.30;99.90
15951;DHT22;8074;48.112;11.570;2022-07-10T12:50:49;25.30;99.90
15951;DHT22;8074;48.112;11.570;2022-07-10T12:53:16;25.20;99.90
15951;DHT22;8074;48.112;11.570;2022-07-10T12:55:43;23.90;99.90
15951;DHT22;8074;48.112;11.570;2022-07-10T12:58:12;23.70;99.90
15951;DHT22;8074;48.112;11.570;2022-07-10T13:00:44;24.60;99.90
15951;DHT22;8074;48.112;11.570;2022-07-10T13:03:18;24.80;99.90
15951;DHT22;8074;48.112;11.570;2022-07-10T13:05:47;25.30;99.90
15951;DHT22;8074;48.112;11.570;2022-07-10T13:08:16;25.50;99.90
15951;DHT22;8074;48.112;11.570;2022-07-10T13:10:48;25.50;99.90
15951;DHT22;8074;48.112;11.570;2022-07-10T13:13:15;26.80;99.90
15951;DHT22;8074;48.112;11.570;2022-07-10T13:15:43;26.80;99.90
15951;DHT22;8074;48.112;11.570;2022-07-10T13:18:19;26.30;99.90
15951;DHT22;8074;48.112;11.570;2022-07-10T13:20:47;25.00;99.90
15951;DHT22;8074;48.112;11.570;2022-07-10T13:23:15;23.70;99.90
15951;DHT22;8074;48.112;11.570;2022-07-10T13:25:42;23.50;99.90
15951;DHT22;8074;48.112;11.570;2022-07-10T13:28:10;25.10;99.90
15951;DHT22;8074;48.112;11.570;2022-07-10T13:30:38;25.90;99.90
15951;DHT22;8074;48.112;11.570;2022-07-10T13:33:22;25.40;99.90
15951;DHT22;8074;48.112;11.570;2022-07-10T13:35:49;26.70;99.90
15951;DHT22;8074;48.112;11.570;2022-07-10T13:38:16;25.70;99.90
15951;DHT22;8074;48.112;11.570;2022-07-10T13:40:45;25.70;99.90
15951;DHT22;8074;48.112;11.570;2022-07-10T13:43:13;26.00;99.90
15951;DHT22;8074;48.112;11.570;2022-07-10T13:46:03;26.60;99.90
15951;DHT22;8074;48.112;11.570;2022-07-10T13:48:54;27.40;99.90
15951;DHT22;8074;48.112;11.570;2022-07-10T13:51:42;27.30;99.90
15951;DHT22;8074;48.112;11.570;2022-07-10T13:54:29;25.40;99.90
15951;DHT22;8074;48.112;11.570;2022-07-10T13:56:57;25.50;99.90
15951;DHT22;8074;48.112;11.570;2022-07-10T13:59:24;26.70;99.90
15951;DHT22;8074;48.112;11.570;2022-07-10T14:01:51;27.60;99.90
15951;DHT22;8074;48.112;11.570;2022-07-10T14:04:20;27.50;99.90
15951;DHT22;8074;48.112;11.570;2022-07-10T14:06:47;26.20;99.90
15951;DHT22;8074;48.112;11.570;2022-07-10T14:09:14;26.60;99.90
15951;DHT22;8074;48.112;11.570;2022-07-10T14:11:41;26.00;99.90
15951;DHT22;8074;48.112;11.570;2022-07-10T14:14:09;26.00;99.90
15951;DHT22;8074;48.112;11.570;2022-07-10T14:16:41;24.90;99.90
15951;DHT22;8074;48.112;11.570;2022-07-10T14:19:09;25.80;99.90
15951;DHT22;8074;48.112;11.570;2022-07-10T14:21:39;27.40;99.90
15951;DHT22;8074;48.112;11.570;2022-07-10T14:24:07;26.20;99.90
15951;DHT22;8074;48.112;11.570;2022-07-10T14:26:34;25.50;99.90
15951;DHT22;8074;48.112;11.570;2022-07-10T14:29:01;26.90;99.90
15951;DHT22;8074;48.112;11.570;2022-07-10T14:31:28;28.80;99.90
15951;DHT22;8074;48.112;11.570;2022-07-10T14:33:56;28.20;99.90
15951;DHT22;8074;48.112;11.570;2022-07-10T14:36:23;28.70;99.90
15951;DHT22;8074;48.112;11.570;2022-07-10T14:38:53;29.00;99.90
15951;DHT22;8074;48.112;11.570;2022-07-10T14:41:20;28.80;99.90
15951;DHT22;8074;48.112;11.570;2022-07-10T14:43:50;28.00;99.90
15951;DHT22;8074;48.112;11.570;2022-07-10T14:46:20;28.30;99.90
15951;DHT22;8074;48.112;11.570;2022-07-10T14:48:47;27.50;99.90
15951;DHT22;8074;48.112;11.570;2022-07-10T14:51:17;27.70;99.90
15951;DHT22;8074;48.112;11.570;2022-07-10T14:53:45;28.60;99.90
15951;DHT22;8074;48.112;11.570;2022-07-10T14:56:15;28.80;99.90
15951;DHT22;8074;48.112;11.570;2022-07-10T14:58:43;29.80;99.90
15951;DHT22;8074;48.112;11.570;2022-07-10T15:01:10;28.90;99.90
15951;DHT22;8074;48.112;11.570;2022-07-10T15:03:37;29.70;99.90
15951;DHT22;8074;48.112;11.570;2022-07-10T15:06:05;29.50;99.70
15951;DHT22;8074;48.112;11.570;2022-07-10T15:08:32;29.90;99.60
15951;DHT22;8074;48.112;11.570;2022-07-10T15:10:59;29.70;99.20
15951;DHT22;8074;48.112;11.570;2022-07-10T15:13:28;30.00;98.90
15951;DHT22;8074;48.112;11.570;2022-07-10T15:15:55;29.10;98.70
15951;DHT22;8074;48.112;11.570;2022-07-10T15:18:22;28.40;99.00
15951;DHT22;8074;48.112;11.570;2022-07-10T15:20:49;28.00;99.10
15951;DHT22;8074;48.112;11.570;2022-07-10T15:23:16;27.20;99.70
15951;DHT22;8074;48.112;11.570;2022-07-10T15:25:43;28.10;99.20
15951;DHT22;8074;48.112;11.570;2022-07-10T15:28:11;28.20;98.70
15951;DHT22;8074;48.112;11.570;2022-07-10T15:30:39;28.20;99.30
15951;DHT22;8074;48.112;11.570;2022-07-10T15:33:08;28.00;98.60
15951;DHT22;8074;48.112;11.570;2022-07-10T15:35:37;26.60;99.00
15951;DHT22;8074;48.112;11.570;2022-07-10T15:38:05;26.80;99.10
15951;DHT22;8074;48.112;11.570;2022-07-10T15:40:32;27.00;99.00
15951;DHT22;8074;48.112;11.570;2022-07-10T15:42:59;26.80;98.90
15951;DHT22;8074;48.112;11.570;2022-07-10T15:45:26;28.00;98.30
15951;DHT22;8074;48.112;11.570;2022-07-10T15:47:55;26.50;98.80
15951;DHT22;8074;48.112;11.570;2022-07-10T15:50:23;26.10;99.40